createdAt,value
2018-04-08T00:01:17.697Z,4.20
2018-04-08T00:03:43.658Z,4.17
2018-04-08T00:06:10.364Z,3.30
2018-04-08T00:08:36.332Z,4.37
2018-04-08T00:11:02.295Z,4.03
2018-04-08T00:13:29.050Z,3.70
2018-04-08T00:15:55.044Z,3.07
2018-04-08T00:18:21.023Z,4.17
2018-04-08T00:20:46.979Z,3.67
2018-04-08T00:23:12.972Z,4.07
2018-04-08T00:25:38.916Z,4.27
2018-04-08T00:28:05.636Z,3.70
2018-04-08T00:30:31.612Z,3.97
2018-04-08T00:32:58.337Z,3.80
2018-04-08T00:35:25.092Z,3.57
2018-04-08T00:37:51.052Z,4.33
2018-04-08T00:40:17.764Z,4.20
2018-04-08T00:42:43.752Z,4.43
2018-04-08T00:45:09.743Z,4.27
2018-04-08T00:47:36.887Z,4.00
2018-04-08T00:50:02.872Z,4.43
2018-04-08T00:52:29.615Z,4.53
2018-04-08T00:54:56.372Z,4.17
2018-04-08T00:57:23.064Z,3.77
2018-04-08T00:59:49.047Z,4.40
2018-04-08T01:02:15.755Z,4.63
2018-04-08T01:04:41.748Z,4.20
2018-04-08T01:07:08.459Z,4.07
2018-04-08T01:09:34.433Z,4.47
2018-04-08T01:12:01.260Z,3.73
2018-04-08T01:14:28.029Z,4.00
2018-04-08T01:16:54.004Z,4.27
2018-04-08T01:19:19.977Z,4.43
2018-04-08T01:21:45.956Z,4.00
2018-04-08T01:24:12.664Z,4.33
2018-04-08T01:26:38.630Z,4.47
2018-04-08T01:29:05.349Z,4.30
2018-04-08T01:31:31.328Z,3.90
2018-04-08T01:33:58.106Z,4.07
2018-04-08T01:36:24.081Z,4.13
2018-04-08T01:38:50.056Z,3.53
2018-04-08T01:41:16.768Z,3.70
2018-04-08T01:43:42.745Z,3.97
2018-04-08T01:46:08.725Z,3.70
2018-04-08T01:48:35.100Z,4.00
2018-04-08T01:51:01.081Z,5.03
2018-04-08T01:53:27.089Z,4.10
2018-04-08T01:55:53.796Z,4.20
2018-04-08T01:58:19.771Z,4.33
2018-04-08T02:00:46.484Z,4.70
2018-04-08T02:03:12.469Z,4.23
2018-04-08T02:05:39.196Z,4.50
2018-04-08T02:08:05.160Z,5.00
2018-04-08T02:10:31.868Z,4.87
2018-04-08T02:12:57.859Z,4.47
2018-04-08T02:15:23.837Z,4.80
2018-04-08T02:17:49.800Z,5.47
2018-04-08T02:20:15.757Z,4.63
2018-04-08T02:22:42.053Z,4.50
2018-04-08T02:25:08.027Z,5.47
2018-04-08T02:27:34.757Z,5.73
2018-04-08T02:30:00.773Z,4.83
2018-04-08T02:32:26.775Z,5.20
2018-04-08T02:34:52.764Z,5.07
2018-04-08T02:37:18.730Z,5.67
2018-04-08T02:39:44.706Z,4.97
2018-04-08T02:42:10.674Z,4.20
2018-04-08T02:44:37.820Z,5.10
2018-04-08T02:47:03.782Z,4.10
2018-04-08T02:49:30.528Z,5.77
2018-04-08T02:51:57.306Z,4.60
2018-04-08T02:54:23.273Z,3.87
2018-04-08T02:56:49.253Z,4.97
2018-04-08T02:59:15.950Z,4.73
2018-04-08T03:01:41.916Z,4.67
2018-04-08T03:04:07.890Z,4.77
2018-04-08T03:06:34.599Z,5.03
2018-04-08T03:09:00.619Z,5.03
2018-04-08T03:11:26.600Z,4.80
2018-04-08T03:13:53.314Z,3.57
2018-04-08T03:16:26.236Z,4.47
2018-04-08T03:18:52.568Z,4.40
2018-04-08T03:21:18.536Z,4.10
2018-04-08T03:23:45.248Z,4.87
2018-04-08T03:26:11.215Z,5.00
2018-04-08T03:28:37.908Z,4.67
2018-04-08T03:31:03.893Z,4.90
2018-04-08T03:33:29.895Z,4.73
2018-04-08T03:35:55.917Z,4.70
2018-04-08T03:38:29.080Z,5.30
2018-04-08T03:40:55.804Z,4.50
2018-04-08T03:43:21.780Z,4.57
2018-04-08T03:45:48.492Z,4.33
2018-04-08T03:48:14.464Z,4.60
2018-04-08T03:50:41.165Z,4.40
2018-04-08T03:53:07.141Z,4.50
2018-04-08T03:55:33.121Z,4.13
2018-04-08T03:57:59.434Z,4.50
2018-04-08T04:00:26.192Z,4.50
2018-04-08T04:02:53.121Z,4.97
2018-04-08T04:05:19.113Z,4.10
2018-04-08T04:07:45.081Z,4.40
2018-04-08T04:10:11.052Z,4.10
2018-04-08T04:12:37.765Z,4.67
2018-04-08T04:15:03.746Z,8.70
2018-04-08T04:17:30.479Z,4.83
2018-04-08T04:20:08.874Z,4.03
2018-04-08T04:22:47.328Z,4.53
2018-04-08T04:25:25.891Z,4.30
2018-04-08T04:27:58.736Z,4.03
2018-04-08T04:30:25.005Z,4.10
2018-04-08T04:32:50.985Z,4.20
2018-04-08T04:35:16.960Z,4.30
2018-04-08T04:37:42.949Z,4.03
2018-04-08T04:40:08.902Z,4.07
2018-04-08T04:42:34.873Z,4.83
2018-04-08T04:45:00.860Z,4.20
2018-04-08T04:47:27.180Z,4.73
2018-04-08T04:49:53.887Z,4.13
2018-04-08T04:52:20.113Z,4.20
2018-04-08T04:54:46.088Z,3.60
2018-04-08T04:57:12.057Z,3.67
2018-04-08T04:59:38.053Z,4.07
2018-04-08T05:02:04.033Z,3.97
2018-04-08T05:04:30.323Z,4.10
2018-04-08T05:06:56.384Z,3.97
2018-04-08T05:09:23.088Z,4.20
2018-04-08T05:11:49.324Z,4.70
2018-04-08T05:14:15.299Z,4.03
2018-04-08T05:16:41.269Z,4.27
2018-04-08T05:19:07.257Z,4.00
2018-04-08T05:21:33.235Z,3.97
2018-04-08T05:23:59.977Z,4.77
2018-04-08T05:26:26.718Z,4.77
2018-04-08T05:28:53.424Z,4.57
2018-04-08T05:31:19.433Z,3.93
2018-04-08T05:33:45.390Z,4.57
2018-04-08T05:36:11.352Z,4.77
2018-04-08T05:38:37.322Z,4.30
2018-04-08T05:41:03.365Z,3.83
2018-04-08T05:43:29.325Z,4.13
2018-04-08T05:45:55.315Z,4.33
2018-04-08T05:48:22.036Z,3.90
2018-04-08T05:50:48.005Z,4.50
2018-04-08T05:53:13.969Z,4.93
2018-04-08T05:55:39.962Z,4.20
2018-04-08T05:58:05.942Z,5.50
2018-04-08T06:00:31.973Z,4.20
2018-04-08T06:02:58.038Z,5.30
2018-04-08T06:05:24.001Z,4.60
2018-04-08T06:07:49.983Z,4.70
2018-04-08T06:10:15.956Z,4.83
2018-04-08T06:12:41.920Z,4.70
2018-04-08T06:15:07.889Z,5.07
2018-04-08T06:17:33.869Z,4.70
2018-04-08T06:19:59.911Z,5.00
2018-04-08T06:22:25.980Z,5.03
2018-04-08T06:24:52.717Z,4.83
2018-04-08T06:27:18.673Z,5.07
2018-04-08T06:29:45.386Z,4.57
2018-04-08T06:32:11.348Z,4.73
2018-04-08T06:34:38.106Z,4.63
2018-04-08T06:37:04.837Z,4.43
2018-04-08T06:39:30.865Z,4.43
2018-04-08T06:41:56.867Z,4.87
2018-04-08T06:44:22.854Z,5.10
2018-04-08T06:46:48.833Z,4.60
2018-04-08T06:49:14.809Z,4.50
2018-04-08T06:51:40.801Z,5.03
2018-04-08T06:54:06.785Z,4.50
2018-04-08T06:56:32.757Z,5.57
2018-04-08T06:58:59.502Z,4.60
2018-04-08T07:01:26.765Z,4.85
2018-04-08T07:03:53.493Z,5.07
2018-04-08T07:06:19.465Z,4.63
2018-04-08T07:08:45.433Z,5.13
2018-04-08T07:11:11.398Z,4.50
2018-04-08T07:13:37.365Z,5.17
2018-04-08T07:16:03.337Z,5.20
2018-04-08T07:18:29.375Z,4.50
2018-04-08T07:20:55.352Z,5.60
2018-04-08T07:23:22.089Z,5.17
2018-04-08T07:25:48.065Z,4.37
2018-04-08T07:28:14.060Z,5.40
2018-04-08T07:30:40.045Z,5.77
2018-04-08T07:33:06.005Z,4.95
2018-04-08T07:35:31.984Z,5.33
2018-04-08T07:37:58.691Z,5.57
2018-04-08T07:40:24.656Z,5.20
2018-04-08T07:42:50.623Z,5.13
2018-04-08T07:45:18.165Z,5.40
2018-04-08T07:47:44.126Z,5.83
2018-04-08T07:50:11.181Z,5.20
2018-04-08T07:52:37.893Z,5.20
2018-04-08T07:55:03.903Z,5.33
2018-04-08T07:57:29.941Z,5.50
2018-04-08T07:59:55.957Z,5.72
2018-04-08T08:02:21.921Z,5.70
2018-04-08T08:04:47.899Z,5.37
2018-04-08T08:07:13.865Z,5.78
2018-04-08T08:09:39.824Z,5.90
2018-04-08T08:12:05.796Z,6.00
2018-04-08T08:14:32.508Z,5.53
2018-04-08T08:16:58.525Z,5.60
2018-04-08T08:19:24.496Z,5.40
2018-04-08T08:21:50.452Z,5.87
2018-04-08T08:24:16.453Z,6.37
2018-04-08T08:26:42.414Z,6.00
2018-04-08T08:29:08.374Z,6.68
2018-04-08T08:31:34.348Z,5.78
2018-04-08T08:34:00.386Z,6.40
2018-04-08T08:36:26.409Z,6.53
2018-04-08T08:38:52.434Z,6.40
2018-04-08T08:41:19.133Z,6.32
2018-04-08T08:43:45.101Z,6.68
2018-04-08T08:46:11.088Z,6.12
2018-04-08T08:48:37.056Z,6.62
2018-04-08T08:51:03.026Z,6.82
2018-04-08T08:53:29.783Z,6.30
2018-04-08T08:55:56.557Z,6.15
2018-04-08T08:58:22.509Z,6.22
2018-04-08T09:00:48.883Z,6.65
2018-04-08T09:03:14.856Z,6.28
2018-04-08T09:05:40.837Z,6.20
2018-04-08T09:08:06.830Z,6.47
2018-04-08T09:10:33.001Z,5.90
2018-04-08T09:12:59.122Z,5.77
2018-04-08T09:15:26.271Z,7.07
2018-04-08T09:17:52.424Z,6.87
2018-04-08T09:20:21.377Z,7.10
2018-04-08T09:22:53.558Z,7.40
2018-04-08T09:25:20.684Z,7.20
2018-04-08T09:27:47.013Z,5.93
2018-04-08T09:30:13.178Z,6.87
2018-04-08T09:32:39.300Z,6.90
2018-04-08T09:35:05.464Z,6.80
2018-04-08T09:37:32.020Z,6.70
2018-04-08T09:39:58.484Z,7.10
2018-04-08T09:42:24.749Z,7.00
2018-04-08T09:44:50.920Z,7.17
2018-04-08T09:47:17.975Z,7.30
2018-04-08T09:49:45.581Z,7.17
2018-04-08T09:52:12.421Z,7.00
2018-04-08T09:54:38.553Z,7.43
2018-04-08T09:57:05.412Z,7.17
2018-04-08T09:59:32.281Z,7.00
2018-04-08T10:05:00.013Z,7.50
2018-04-08T10:07:26.200Z,7.67
2018-04-08T10:09:52.344Z,7.57
2018-04-08T10:12:18.565Z,8.13
2018-04-08T10:14:44.654Z,8.47
2018-04-08T10:17:17.666Z,7.87
2018-04-08T10:19:43.632Z,7.67
2018-04-08T10:22:09.602Z,8.00
2018-04-08T10:24:35.940Z,8.33
2018-04-08T10:27:01.972Z,8.30
2018-04-08T10:29:27.915Z,8.47
2018-04-08T10:31:53.880Z,8.53
2018-04-08T10:34:19.840Z,9.30
2018-04-08T10:36:45.796Z,9.07
2018-04-08T10:39:11.781Z,9.23
2018-04-08T10:41:38.485Z,9.27
2018-04-08T10:44:04.482Z,9.13
2018-04-08T10:46:30.478Z,8.87
2018-04-08T10:48:56.482Z,10.57
2018-04-08T10:51:22.465Z,9.83
2018-04-08T10:53:49.177Z,9.87
2018-04-08T10:56:15.145Z,9.10
2018-04-08T10:58:41.124Z,9.70
2018-04-08T11:01:07.092Z,9.20
2018-04-08T11:03:33.124Z,9.30
2018-04-08T11:05:59.264Z,9.90
2018-04-08T11:08:25.662Z,9.47
2018-04-08T11:10:51.953Z,10.20
2018-04-08T11:13:17.919Z,9.53
2018-04-08T11:15:44.657Z,9.03
2018-04-08T11:18:10.643Z,8.90
2018-04-08T11:20:36.648Z,9.47
2018-04-08T11:23:03.364Z,9.50
2018-04-08T11:25:29.464Z,9.10
2018-04-08T11:27:55.526Z,9.93
2018-04-08T11:30:21.488Z,9.37
2018-04-08T11:32:47.461Z,9.27
2018-04-08T11:35:13.417Z,9.57
2018-04-08T11:37:39.389Z,8.40
2018-04-08T11:40:05.357Z,9.60
2018-04-08T11:42:32.493Z,9.30
2018-04-08T11:44:58.469Z,9.40
2018-04-08T11:47:24.429Z,8.87
2018-04-08T11:49:50.416Z,8.40
2018-04-08T11:52:17.142Z,9.00
2018-04-08T11:54:43.121Z,9.27
2018-04-08T11:57:09.127Z,9.00
2018-04-08T11:59:35.422Z,9.90
2018-04-08T12:02:01.428Z,9.47
2018-04-08T12:04:28.159Z,8.63
2018-04-08T12:06:54.281Z,9.07
2018-04-08T12:09:20.261Z,9.27
2018-04-08T12:11:46.242Z,9.17
2018-04-08T12:14:12.204Z,8.50
2018-04-08T12:16:38.185Z,8.37
2018-04-08T12:19:04.186Z,8.43
2018-04-08T12:21:30.912Z,7.93
2018-04-08T12:23:57.186Z,7.80
2018-04-08T12:26:34.750Z,8.90
2018-04-08T12:29:01.121Z,7.53
2018-04-08T12:31:27.189Z,7.60
2018-04-08T12:33:53.164Z,7.27
2018-04-08T12:36:19.529Z,7.47
2018-04-08T12:38:45.510Z,8.77
2018-04-08T12:41:11.473Z,7.40
2018-04-08T12:43:37.438Z,7.53
2018-04-08T12:46:04.141Z,6.90
2018-04-08T12:48:30.534Z,7.30
2018-04-08T12:50:56.556Z,6.43
2018-04-08T12:53:22.554Z,6.73
2018-04-08T12:55:48.524Z,6.53
2018-04-08T12:58:14.484Z,6.90
2018-04-08T13:00:41.210Z,6.97
2018-04-08T13:03:07.193Z,6.23
2018-04-08T13:05:33.924Z,6.57
2018-04-08T13:07:59.937Z,6.93
2018-04-08T13:10:25.956Z,6.60
2018-04-08T13:12:51.929Z,6.63
2018-04-08T13:15:17.924Z,6.23
2018-04-08T13:17:44.025Z,6.17
2018-04-08T13:20:10.064Z,6.30
2018-04-08T13:22:36.777Z,6.33
2018-04-08T13:25:02.921Z,5.70
2018-04-08T13:27:28.904Z,6.17
2018-04-08T13:29:54.862Z,4.80
2018-04-08T13:32:20.844Z,5.13
2018-04-08T13:34:46.827Z,5.10
2018-04-08T13:37:12.831Z,5.87
2018-04-08T13:39:39.533Z,5.27
2018-04-08T13:42:05.520Z,5.43
2018-04-08T13:44:32.518Z,5.43
2018-04-08T13:46:58.947Z,4.97
2018-04-08T13:49:24.906Z,4.80
2018-04-08T13:51:50.868Z,5.00
2018-04-08T13:54:16.845Z,5.60
2018-04-08T13:56:43.133Z,5.70
2018-04-08T13:59:09.093Z,4.77
2018-04-08T14:01:35.828Z,5.97
2018-04-08T14:04:01.833Z,6.07
2018-04-08T14:06:27.823Z,5.97
2018-04-08T14:08:53.833Z,6.83
2018-04-08T14:11:19.801Z,6.20
2018-04-08T14:13:45.912Z,5.10
2018-04-08T14:16:11.876Z,5.93
2018-04-08T14:18:37.843Z,5.17
2018-04-08T14:21:03.820Z,5.17
2018-04-08T14:23:29.806Z,4.90
2018-04-08T14:26:02.729Z,5.37
2018-04-08T14:28:28.818Z,5.10
2018-04-08T14:30:55.866Z,5.57
2018-04-08T14:33:22.597Z,5.50
2018-04-08T14:35:48.572Z,5.60
2018-04-08T14:38:14.601Z,4.87
2018-04-08T14:40:41.351Z,5.83
2018-04-08T14:43:08.083Z,5.33
2018-04-08T14:45:34.071Z,5.13
2018-04-08T14:48:00.073Z,5.10
2018-04-08T14:50:26.801Z,4.67
2018-04-08T14:52:52.765Z,4.20
2018-04-08T14:55:19.484Z,4.63
2018-04-08T14:57:45.469Z,4.63
2018-04-08T15:00:11.834Z,5.63
2018-04-08T15:02:37.810Z,4.77
2018-04-08T15:05:03.809Z,5.63
2018-04-08T15:07:29.792Z,4.23
2018-04-08T15:09:55.829Z,4.33
2018-04-08T15:12:22.576Z,4.33
2018-04-08T15:14:48.829Z,5.03
2018-04-08T15:17:15.540Z,4.00
2018-04-08T15:19:41.497Z,4.17
2018-04-08T15:22:07.597Z,3.73
2018-04-08T15:24:33.981Z,3.70
2018-04-08T15:26:59.977Z,4.13
2018-04-08T15:29:26.025Z,4.30
2018-04-08T15:31:52.001Z,3.87
2018-04-08T15:34:18.705Z,3.70
2018-04-08T15:36:44.675Z,3.67
2018-04-08T15:39:10.813Z,3.90
2018-04-08T15:41:36.806Z,3.77
2018-04-08T15:44:02.810Z,3.80
2018-04-08T15:46:29.647Z,3.80
2018-04-08T15:48:55.645Z,3.90
2018-04-08T15:51:21.646Z,3.70
2018-04-08T15:53:47.658Z,3.53
2018-04-08T15:56:14.393Z,3.03
2018-04-08T15:58:40.356Z,3.43
2018-04-08T16:01:07.069Z,3.60
2018-04-08T16:03:33.151Z,4.50
2018-04-08T16:05:59.211Z,3.60
2018-04-08T16:08:25.214Z,3.20
2018-04-08T16:10:51.218Z,3.07
2018-04-08T16:13:17.189Z,3.07
2018-04-08T16:15:43.958Z,3.13
2018-04-08T16:18:09.983Z,3.17
2018-04-08T16:20:36.716Z,3.40
2018-04-08T16:23:03.065Z,3.33
2018-04-08T16:25:29.249Z,3.03
2018-04-08T16:27:55.262Z,3.60
2018-04-08T16:30:21.540Z,3.33
2018-04-08T16:32:47.550Z,2.90
2018-04-08T16:35:13.827Z,3.17
2018-04-08T16:37:39.908Z,3.33
2018-04-08T16:40:06.616Z,6.40
2018-04-08T16:42:32.630Z,5.37
2018-04-08T16:44:58.705Z,3.17
2018-04-08T16:47:25.464Z,3.53
2018-04-08T16:49:52.181Z,3.53
2018-04-08T16:52:18.177Z,4.27
2018-04-08T16:54:44.905Z,3.30
2018-04-08T16:57:10.874Z,4.17
2018-04-08T16:59:37.600Z,3.17
2018-04-08T17:02:03.619Z,3.33
2018-04-08T17:04:29.946Z,3.30
2018-04-08T17:06:55.977Z,3.43
2018-04-08T17:09:21.967Z,3.37
2018-04-08T17:11:47.902Z,3.47
2018-04-08T17:14:14.645Z,3.80
2018-04-08T17:16:40.648Z,3.90
2018-04-08T17:19:06.625Z,3.67
2018-04-08T17:21:32.677Z,4.57
2018-04-08T17:23:59.419Z,4.20
2018-04-08T17:26:26.160Z,3.80
2018-04-08T17:28:52.399Z,4.00
2018-04-08T17:31:18.358Z,3.27
2018-04-08T17:33:45.101Z,3.80
2018-04-08T17:36:12.038Z,3.47
2018-04-08T17:38:38.002Z,3.50
2018-04-08T17:41:04.738Z,3.37
2018-04-08T17:43:30.737Z,4.10
2018-04-08T17:45:56.735Z,3.97
2018-04-08T17:48:22.976Z,4.67
2018-04-08T17:50:49.073Z,4.67
2018-04-08T17:53:15.802Z,4.03
2018-04-08T17:55:41.778Z,4.43
2018-04-08T17:58:08.544Z,4.00
2018-04-08T18:00:35.266Z,4.83
2018-04-08T18:03:01.292Z,6.00
2018-04-08T18:05:27.382Z,4.43
2018-04-08T18:07:53.369Z,5.07
2018-04-08T18:10:19.328Z,3.83
2018-04-08T18:12:45.465Z,4.43
2018-04-08T18:15:11.677Z,4.70
2018-04-08T18:17:37.641Z,4.53
2018-04-08T18:20:03.621Z,4.60
2018-04-08T18:22:29.615Z,3.63
2018-04-08T18:24:55.614Z,3.83
2018-04-08T18:27:21.692Z,3.77
2018-04-08T18:29:48.395Z,3.20
2018-04-08T18:32:14.881Z,3.87
2018-04-08T18:34:40.849Z,6.13
2018-04-08T18:37:06.812Z,5.93
2018-04-08T18:39:32.804Z,5.50
2018-04-08T18:41:59.553Z,8.63
2018-04-08T18:44:26.365Z,6.47
2018-04-08T18:46:52.327Z,4.60
2018-04-08T18:49:18.477Z,3.33
2018-04-08T18:51:44.454Z,3.07
2018-04-08T18:54:10.421Z,3.33
2018-04-08T18:56:36.437Z,3.57
2018-04-08T18:59:02.414Z,3.53
2018-04-08T19:01:29.147Z,4.00
2018-04-08T19:03:55.192Z,4.30
2018-04-08T19:06:21.159Z,3.90
2018-04-08T19:08:48.025Z,4.00
2018-04-08T19:11:14.116Z,3.90
2018-04-08T19:13:40.090Z,4.97
2018-04-08T19:16:06.809Z,3.60
2018-04-08T19:18:32.802Z,3.67
2018-04-08T19:20:59.720Z,3.53
2018-04-08T19:23:26.506Z,3.87
2018-04-08T19:25:52.896Z,3.83
2018-04-08T19:28:18.865Z,4.10
2018-04-08T19:30:45.573Z,3.50
2018-04-08T19:33:11.593Z,4.37
2018-04-08T19:35:37.564Z,4.20
2018-04-08T19:38:03.538Z,3.20
2018-04-08T19:40:29.542Z,3.27
2018-04-08T19:42:55.557Z,2.90
2018-04-08T19:45:21.541Z,3.10
2018-04-08T19:47:48.878Z,3.83
2018-04-08T19:50:14.849Z,4.50
2018-04-08T19:52:40.842Z,3.73
2018-04-08T19:55:06.985Z,3.57
2018-04-08T19:57:32.958Z,4.23
2018-04-08T19:59:58.946Z,3.77
2018-04-08T20:02:24.925Z,2.73
2018-04-08T20:04:50.939Z,2.73
2018-04-08T20:07:17.643Z,2.80
2018-04-08T20:09:43.652Z,3.00
2018-04-08T20:12:09.636Z,3.00
2018-04-08T20:14:35.600Z,2.60
2018-04-08T20:17:01.742Z,3.00
2018-04-08T20:19:28.481Z,2.73
2018-04-08T20:21:54.472Z,3.00
2018-04-08T20:24:20.466Z,2.90
2018-04-08T20:26:46.446Z,3.07
2018-04-08T20:29:12.433Z,2.77
2018-04-08T20:31:39.168Z,2.63
2018-04-08T20:34:05.134Z,3.10
2018-04-08T20:36:31.877Z,2.63
2018-04-08T20:38:58.717Z,2.73
2018-04-08T20:41:24.672Z,3.00
2018-04-08T20:43:51.378Z,3.40
2018-04-08T20:46:17.388Z,2.93
2018-04-08T20:48:43.361Z,3.17
2018-04-08T20:51:09.351Z,2.83
2018-04-08T20:53:35.377Z,2.70
2018-04-08T20:56:02.144Z,3.03
2018-04-08T20:58:28.129Z,2.93
2018-04-08T21:00:54.120Z,3.07
2018-04-08T21:03:20.090Z,3.53
2018-04-08T21:05:46.058Z,3.70
2018-04-08T21:11:09.963Z,3.23
2018-04-08T21:13:35.961Z,3.30
2018-04-08T21:16:02.039Z,4.03
2018-04-08T21:18:28.292Z,3.70
2018-04-08T21:20:54.249Z,4.53
2018-04-08T21:23:20.960Z,3.37
2018-04-08T21:25:46.942Z,3.33
2018-04-08T21:28:13.642Z,3.47
2018-04-08T21:30:39.610Z,3.20
2018-04-08T21:33:05.609Z,2.80
2018-04-08T21:35:31.616Z,3.00
2018-04-08T21:37:57.948Z,2.70
2018-04-08T21:40:23.990Z,3.10
2018-04-08T21:42:49.973Z,2.80
2018-04-08T21:45:15.958Z,3.00
2018-04-08T21:47:42.352Z,3.83
2018-04-08T21:50:08.312Z,3.17
2018-04-08T21:52:34.296Z,3.00
2018-04-08T21:55:00.334Z,4.10
2018-04-08T21:57:26.352Z,3.20
2018-04-08T21:59:52.305Z,3.27
2018-04-08T22:02:18.309Z,3.43
2018-04-08T22:04:45.017Z,3.20
2018-04-08T22:07:10.976Z,3.57
2018-04-08T22:09:36.959Z,3.10
2018-04-08T22:12:02.926Z,3.40
2018-04-08T22:14:28.941Z,3.60
2018-04-08T22:16:55.314Z,3.73
2018-04-08T22:19:21.286Z,3.67
2018-04-08T22:21:47.269Z,3.47
2018-04-08T22:24:13.428Z,3.80
2018-04-08T22:26:40.904Z,3.03
2018-04-08T22:29:06.859Z,3.40
2018-04-08T22:31:33.633Z,3.40
2018-04-08T22:33:59.617Z,3.93
2018-04-08T22:36:27.106Z,3.40
2018-04-08T22:38:53.873Z,4.17
2018-04-08T22:41:20.586Z,3.80
2018-04-08T22:43:46.577Z,4.20
2018-04-08T22:46:12.957Z,4.20
2018-04-08T22:48:39.121Z,4.07
2018-04-08T22:51:05.093Z,3.90
2018-04-08T22:53:31.157Z,3.50
2018-04-08T22:55:57.188Z,3.93
2018-04-08T22:58:23.176Z,4.17
2018-04-08T23:00:49.327Z,4.37
2018-04-08T23:03:16.025Z,3.70
2018-04-08T23:05:42.005Z,4.53
2018-04-08T23:08:08.301Z,4.03
2018-04-08T23:10:34.291Z,3.90
2018-04-08T23:13:00.281Z,3.57
2018-04-08T23:15:26.457Z,4.23
2018-04-08T23:17:52.410Z,3.63
2018-04-08T23:20:19.128Z,3.87
2018-04-08T23:22:45.270Z,4.03
2018-04-08T23:25:11.245Z,4.07
2018-04-08T23:27:37.204Z,3.90
2018-04-08T23:30:03.218Z,4.40
2018-04-08T23:32:29.209Z,4.37
2018-04-08T23:34:56.126Z,4.67
2018-04-08T23:37:22.109Z,4.53
2018-04-08T23:39:48.182Z,3.63
2018-04-08T23:42:14.153Z,4.03
2018-04-08T23:44:40.186Z,3.63
2018-04-08T23:47:06.164Z,4.87
2018-04-08T23:49:32.179Z,4.27
2018-04-08T23:51:58.336Z,3.97
2018-04-08T23:54:24.300Z,4.60
2018-04-08T23:56:50.261Z,4.60
2018-04-08T23:59:16.746Z,3.77
